createdAt,value
2019-01-23T00:01:37.177Z,128.50
2019-01-23T00:04:08.269Z,122.55
2019-01-23T00:06:39.532Z,127.35
2019-01-23T00:09:21.909Z,119.05
2019-01-23T00:11:52.005Z,121.10
2019-01-23T00:14:22.127Z,130.05
2019-01-23T00:16:52.222Z,133.25
2019-01-23T00:19:22.340Z,120.55
2019-01-23T00:21:52.435Z,128.42
2019-01-23T00:24:22.549Z,119.72
2019-01-23T00:26:52.648Z,118.53
2019-01-23T00:29:23.832Z,128.50
2019-01-23T00:31:53.931Z,118.82
2019-01-23T00:34:24.044Z,132.82
2019-01-23T00:36:54.138Z,127.25
2019-01-23T00:39:24.269Z,124.35
2019-01-23T00:41:54.365Z,119.65
2019-01-23T00:44:24.494Z,125.82
2019-01-23T00:46:54.589Z,120.37
2019-01-23T00:49:24.708Z,115.50
2019-01-23T00:51:54.801Z,119.37
2019-01-23T00:54:25.187Z,123.45
2019-01-23T00:56:55.289Z,128.62
2019-01-23T00:59:25.405Z,127.85
2019-01-23T01:01:56.262Z,130.90
2019-01-23T01:04:26.525Z,127.87
2019-01-23T01:06:56.609Z,132.95
2019-01-23T01:09:26.733Z,125.70
2019-01-23T01:11:56.840Z,134.82
2019-01-23T01:14:26.971Z,127.05
2019-01-23T01:16:57.090Z,125.30
2019-01-23T01:19:27.201Z,131.03
2019-01-23T01:22:05.868Z,130.65
2019-01-23T01:24:35.977Z,120.17
2019-01-23T01:27:06.092Z,120.75
2019-01-23T01:29:36.211Z,119.80
2019-01-23T01:32:06.323Z,128.72
2019-01-23T01:34:36.443Z,124.80
2019-01-23T01:37:06.571Z,118.85
2019-01-23T01:39:36.692Z,123.60
2019-01-23T01:42:06.788Z,121.17
2019-01-23T01:44:36.896Z,85.90
2019-01-23T01:47:06.987Z,122.65
2019-01-23T01:49:37.115Z,117.08
2019-01-23T01:52:26.664Z,117.22
2019-01-23T01:54:56.758Z,109.57
2019-01-23T01:57:26.848Z,122.25
2019-01-23T01:59:56.974Z,113.85
2019-01-23T02:02:27.068Z,105.95
2019-01-23T02:04:57.173Z,115.00
2019-01-23T02:07:27.277Z,117.03
2019-01-23T02:09:57.396Z,111.90
2019-01-23T02:12:27.484Z,111.80
2019-01-23T02:14:57.593Z,113.77
2019-01-23T02:17:27.687Z,113.83
2019-01-23T02:19:57.825Z,114.17
2019-01-23T02:22:27.897Z,121.15
2019-01-23T02:24:58.021Z,117.37
2019-01-23T02:27:28.116Z,108.00
2019-01-23T02:29:58.235Z,119.33
2019-01-23T02:32:28.327Z,109.03
2019-01-23T02:34:58.449Z,103.30
2019-01-23T02:37:28.736Z,113.25
2019-01-23T02:39:58.834Z,116.90
2019-01-23T02:42:28.934Z,113.17
2019-01-23T02:44:59.039Z,96.60
2019-01-23T02:47:29.144Z,109.90
2019-01-23T02:49:59.265Z,118.28
2019-01-23T02:52:29.363Z,107.65
2019-01-23T02:54:59.473Z,112.37
2019-01-23T02:57:29.566Z,110.22
2019-01-23T03:00:00.646Z,107.52
2019-01-23T03:02:30.739Z,112.08
2019-01-23T03:05:00.872Z,100.53
2019-01-23T03:07:30.952Z,118.33
2019-01-23T03:10:01.076Z,114.82
2019-01-23T03:12:32.245Z,107.55
2019-01-23T03:15:02.394Z,116.80
2019-01-23T03:17:32.471Z,107.05
2019-01-23T03:20:02.588Z,112.88
2019-01-23T03:22:32.678Z,110.63
2019-01-23T03:25:02.960Z,116.05
2019-01-23T03:27:33.059Z,116.90
2019-01-23T03:30:05.024Z,119.28
2019-01-23T03:32:35.126Z,116.47
2019-01-23T03:35:08.956Z,108.25
2019-01-23T03:37:39.050Z,111.80
2019-01-23T03:40:16.312Z,113.72
2019-01-23T03:42:46.403Z,113.52
2019-01-23T03:45:17.721Z,112.15
2019-01-23T03:47:47.879Z,120.85
2019-01-23T03:50:19.453Z,115.42
2019-01-23T03:52:50.565Z,108.17
2019-01-23T03:55:20.711Z,113.35
2019-01-23T03:58:03.478Z,110.90
2019-01-23T04:00:33.564Z,109.97
2019-01-23T04:03:03.684Z,110.92
2019-01-23T04:05:33.778Z,111.00
2019-01-23T04:08:03.895Z,120.97
2019-01-23T04:10:33.994Z,97.82
2019-01-23T04:13:04.654Z,115.57
2019-01-23T04:15:34.751Z,113.65
2019-01-23T04:18:04.876Z,122.00
2019-01-23T04:20:34.978Z,113.12
2019-01-23T04:23:05.134Z,123.00
2019-01-23T04:25:35.294Z,108.47
2019-01-23T04:28:05.431Z,124.12
2019-01-23T04:30:35.545Z,117.17
2019-01-23T04:33:05.671Z,106.17
2019-01-23T04:35:55.190Z,112.55
2019-01-23T04:38:25.304Z,97.57
2019-01-23T04:40:55.391Z,122.47
2019-01-23T04:43:25.503Z,113.75
2019-01-23T04:45:55.638Z,110.57
2019-01-23T04:48:25.759Z,121.62
2019-01-23T04:51:06.604Z,127.32
2019-01-23T04:53:38.426Z,120.65
2019-01-23T04:56:08.522Z,110.17
2019-01-23T04:58:38.646Z,119.47
2019-01-23T05:01:08.744Z,125.10
2019-01-23T05:03:38.864Z,120.40
2019-01-23T05:06:08.953Z,118.15
2019-01-23T05:08:39.070Z,128.25
2019-01-23T05:11:09.167Z,133.97
2019-01-23T05:13:39.283Z,122.75
2019-01-23T05:16:09.378Z,124.18
2019-01-23T05:18:40.459Z,131.60
2019-01-23T05:21:10.555Z,108.15
2019-01-23T05:23:40.723Z,116.67
2019-01-23T05:26:10.769Z,119.13
2019-01-23T05:28:40.896Z,122.07
2019-01-23T05:31:10.997Z,121.55
2019-01-23T05:33:41.101Z,123.60
2019-01-23T05:36:11.189Z,117.95
2019-01-23T05:38:41.298Z,114.25
2019-01-23T05:41:11.397Z,104.07
2019-01-23T05:43:41.506Z,130.18
2019-01-23T05:46:11.603Z,131.27
2019-01-23T05:48:41.736Z,132.57
2019-01-23T05:51:11.842Z,141.88
2019-01-23T05:53:41.968Z,119.60
2019-01-23T05:56:12.067Z,144.10
2019-01-23T05:58:42.225Z,132.25
2019-01-23T06:01:12.433Z,131.63
2019-01-23T06:03:42.533Z,136.95
2019-01-23T06:06:12.663Z,137.00
2019-01-23T06:08:42.778Z,154.33
2019-01-23T06:11:12.869Z,136.90
2019-01-23T06:13:42.983Z,141.75
2019-01-23T06:16:13.131Z,116.53
2019-01-23T06:18:43.243Z,144.40
2019-01-23T06:21:13.352Z,128.23
2019-01-23T06:23:43.734Z,144.80
2019-01-23T06:26:13.843Z,141.97
2019-01-23T06:28:43.956Z,136.43
2019-01-23T06:31:14.049Z,82.72
2019-01-23T06:33:44.174Z,147.65
2019-01-23T06:36:14.271Z,143.15
2019-01-23T06:38:44.388Z,152.57
2019-01-23T06:41:16.496Z,137.52
2019-01-23T06:43:46.607Z,146.45
2019-01-23T06:46:16.698Z,137.50
2019-01-23T06:48:46.811Z,139.12
2019-01-23T06:51:16.920Z,145.80
2019-01-23T06:53:47.031Z,143.13
2019-01-23T06:59:11.586Z,131.37
2019-01-23T07:01:41.686Z,141.28
2019-01-23T07:04:11.792Z,101.35
2019-01-23T07:06:54.661Z,128.75
2019-01-23T07:09:24.777Z,139.97
2019-01-23T07:11:54.869Z,143.75
2019-01-23T07:14:24.986Z,140.50
2019-01-23T07:16:55.092Z,144.75
2019-01-23T07:19:25.221Z,141.57
2019-01-23T07:21:55.334Z,136.77
2019-01-23T07:24:25.421Z,145.55
2019-01-23T07:26:55.514Z,127.05
2019-01-23T07:29:25.630Z,132.45
2019-01-23T07:31:55.716Z,143.43
2019-01-23T07:34:25.998Z,141.77
2019-01-23T07:36:57.198Z,127.97
2019-01-23T07:39:27.312Z,147.95
2019-01-23T07:41:57.420Z,153.02
2019-01-23T07:44:27.564Z,140.50
2019-01-23T07:46:57.772Z,153.93
2019-01-23T07:49:27.889Z,142.60
2019-01-23T07:51:57.990Z,148.55
2019-01-23T07:54:28.106Z,147.32
2019-01-23T07:56:58.195Z,150.38
2019-01-23T07:59:28.360Z,144.90
2019-01-23T08:01:58.454Z,154.80
2019-01-23T08:04:28.570Z,159.60
2019-01-23T08:06:58.709Z,165.00
2019-01-23T08:09:28.824Z,155.48
2019-01-23T08:11:58.912Z,161.60
2019-01-23T08:14:29.024Z,119.15
2019-01-23T08:16:59.114Z,162.15
2019-01-23T08:19:29.233Z,170.55
2019-01-23T08:21:59.328Z,174.90
2019-01-23T08:24:29.441Z,162.97
2019-01-23T08:26:59.553Z,161.85
2019-01-23T08:29:29.645Z,175.35
2019-01-23T08:31:59.752Z,177.38
2019-01-23T08:34:29.841Z,182.93
2019-01-23T08:36:59.960Z,177.75
2019-01-23T08:39:30.160Z,174.40
2019-01-23T08:42:00.276Z,183.40
2019-01-23T08:44:30.376Z,170.65
2019-01-23T08:47:01.722Z,172.47
2019-01-23T08:49:31.818Z,167.62
2019-01-23T08:52:01.930Z,176.30
2019-01-23T08:54:32.046Z,187.22
2019-01-23T08:57:02.182Z,197.30
2019-01-23T08:59:32.365Z,193.47
2019-01-23T09:02:02.455Z,190.38
2019-01-23T09:04:32.568Z,187.43
2019-01-23T09:07:02.659Z,193.35
2019-01-23T09:09:32.769Z,184.20
2019-01-23T09:12:02.866Z,215.60
2019-01-23T09:14:33.150Z,200.20
2019-01-23T09:17:03.239Z,193.90
2019-01-23T09:19:33.365Z,214.48
2019-01-23T09:22:03.546Z,202.53
2019-01-23T09:24:33.646Z,200.38
2019-01-23T09:27:03.744Z,211.97
2019-01-23T09:29:33.858Z,205.20
2019-01-23T09:32:23.461Z,209.90
2019-01-23T09:35:03.998Z,206.70
2019-01-23T09:37:44.235Z,227.35
2019-01-23T09:40:24.716Z,207.57
2019-01-23T09:43:11.637Z,208.55
2019-01-23T09:46:04.541Z,235.68
2019-01-23T09:48:51.562Z,228.83
2019-01-23T09:52:01.585Z,213.28
2019-01-23T09:54:32.677Z,227.22
2019-01-23T09:57:02.769Z,222.02
2019-01-23T09:59:32.919Z,213.37
2019-01-23T10:02:03.018Z,218.93
2019-01-23T10:04:33.144Z,232.85
2019-01-23T10:07:03.271Z,235.50
2019-01-23T10:09:34.003Z,211.75
2019-01-23T10:12:04.167Z,225.85
2019-01-23T10:14:34.262Z,215.07
2019-01-23T10:17:05.370Z,227.70
2019-01-23T10:19:35.458Z,217.13
2019-01-23T10:22:05.573Z,235.23
2019-01-23T10:24:36.161Z,227.78
2019-01-23T10:27:06.357Z,239.88
2019-01-23T10:29:36.460Z,193.13
2019-01-23T10:32:06.589Z,230.52
2019-01-23T10:34:36.688Z,231.45
2019-01-23T10:37:06.792Z,228.45
2019-01-23T10:39:56.315Z,244.82
2019-01-23T10:42:38.617Z,234.50
2019-01-23T10:45:11.752Z,214.82
2019-01-23T10:47:42.120Z,227.75
2019-01-23T10:50:15.804Z,225.28
2019-01-23T10:52:45.891Z,230.12
2019-01-23T10:55:15.994Z,228.22
2019-01-23T10:57:46.126Z,228.30
2019-01-23T11:00:22.155Z,221.05
2019-01-23T11:02:52.239Z,230.12
2019-01-23T11:05:24.260Z,223.97
2019-01-23T11:07:54.376Z,214.32
2019-01-23T11:10:28.250Z,220.12
2019-01-23T11:12:58.336Z,226.60
2019-01-23T11:15:28.440Z,223.30
2019-01-23T11:17:58.521Z,217.00
2019-01-23T11:20:31.980Z,226.27
2019-01-23T11:23:02.119Z,214.75
2019-01-23T11:25:32.223Z,219.72
2019-01-23T11:28:02.316Z,214.93
2019-01-23T11:30:32.983Z,219.07
2019-01-23T11:33:03.180Z,215.85
2019-01-23T11:35:33.242Z,220.88
2019-01-23T11:38:03.328Z,214.80
2019-01-23T11:40:33.435Z,223.90
2019-01-23T11:43:03.614Z,217.53
2019-01-23T11:45:33.724Z,215.18
2019-01-23T11:48:04.081Z,204.13
2019-01-23T11:50:34.163Z,216.08
2019-01-23T11:53:04.821Z,202.72
2019-01-23T11:55:34.932Z,227.30
2019-01-23T11:58:05.025Z,230.57
2019-01-23T12:00:36.509Z,236.60
2019-01-23T12:03:07.165Z,229.00
2019-01-23T12:05:37.315Z,229.78
2019-01-23T12:08:07.411Z,220.37
2019-01-23T12:10:37.522Z,226.60
2019-01-23T12:13:07.639Z,226.85
2019-01-23T12:15:41.037Z,221.18
2019-01-23T12:18:09.550Z,220.70
2019-01-23T12:20:39.643Z,228.37
2019-01-23T12:23:09.999Z,221.18
2019-01-23T12:25:40.155Z,226.62
2019-01-23T12:28:10.609Z,235.32
2019-01-23T12:30:40.676Z,201.95
2019-01-23T12:33:10.792Z,214.88
2019-01-23T12:35:40.930Z,212.53
2019-01-23T12:38:11.041Z,223.20
2019-01-23T12:40:41.188Z,190.05
2019-01-23T12:43:11.286Z,220.75
2019-01-23T12:45:41.414Z,223.62
2019-01-23T12:48:14.551Z,203.85
2019-01-23T12:50:44.728Z,217.47
2019-01-23T12:53:15.199Z,206.10
2019-01-23T12:55:45.290Z,207.57
2019-01-23T12:58:16.374Z,170.38
2019-01-23T13:00:46.529Z,207.57
2019-01-23T13:03:16.777Z,204.10
2019-01-23T13:05:46.888Z,208.53
2019-01-23T13:08:17.012Z,230.05
2019-01-23T13:10:47.101Z,213.25
2019-01-23T13:13:17.229Z,222.05
2019-01-23T13:15:47.325Z,216.27
2019-01-23T13:18:17.448Z,228.32
2019-01-23T13:20:47.550Z,225.70
2019-01-23T13:23:19.861Z,225.43
2019-01-23T13:25:49.490Z,223.68
2019-01-23T13:28:19.586Z,211.10
2019-01-23T13:30:49.715Z,210.48
2019-01-23T13:33:19.828Z,218.45
2019-01-23T13:35:49.952Z,206.25
2019-01-23T13:38:20.051Z,200.65
2019-01-23T13:40:50.180Z,197.20
2019-01-23T13:43:20.274Z,180.12
2019-01-23T13:45:50.400Z,210.08
2019-01-23T13:48:20.495Z,213.30
2019-01-23T13:50:50.701Z,222.05
2019-01-23T13:53:20.793Z,213.87
2019-01-23T13:55:50.918Z,215.85
2019-01-23T13:58:21.017Z,210.48
2019-01-23T14:00:52.122Z,212.12
2019-01-23T14:03:22.220Z,226.35
2019-01-23T14:05:52.417Z,205.35
2019-01-23T14:08:22.533Z,212.63
2019-01-23T14:10:52.620Z,217.80
2019-01-23T14:13:22.777Z,195.50
2019-01-23T14:15:52.859Z,210.40
2019-01-23T14:18:22.992Z,214.45
2019-01-23T14:20:53.093Z,186.05
2019-01-23T14:23:23.226Z,213.15
2019-01-23T14:25:53.321Z,193.90
2019-01-23T14:28:23.446Z,197.98
2019-01-23T14:30:53.557Z,198.68
2019-01-23T14:33:23.671Z,181.52
2019-01-23T14:35:53.928Z,183.97
2019-01-23T14:38:24.097Z,146.05
2019-01-23T14:40:54.189Z,179.53
2019-01-23T14:43:24.306Z,160.48
2019-01-23T14:45:54.397Z,161.65
2019-01-23T14:48:24.541Z,166.18
2019-01-23T14:50:54.646Z,157.67
2019-01-23T14:53:24.936Z,147.95
2019-01-23T14:55:55.042Z,133.27
2019-01-23T14:58:25.221Z,155.50
2019-01-23T15:00:55.321Z,146.02
2019-01-23T15:03:26.425Z,124.47
2019-01-23T15:05:56.518Z,148.02
2019-01-23T15:08:26.638Z,146.62
2019-01-23T15:10:56.741Z,126.80
2019-01-23T15:13:27.060Z,140.43
2019-01-23T15:15:57.160Z,140.07
2019-01-23T15:18:27.295Z,138.25
2019-01-23T15:20:57.393Z,138.75
2019-01-23T15:23:27.514Z,139.12
2019-01-23T15:25:57.614Z,130.00
2019-01-23T15:28:27.764Z,135.97
2019-01-23T15:30:57.868Z,129.07
2019-01-23T15:33:27.993Z,137.25
2019-01-23T15:35:58.096Z,132.65
2019-01-23T15:38:28.226Z,132.93
2019-01-23T15:40:58.329Z,150.57
2019-01-23T15:43:28.450Z,135.82
2019-01-23T15:45:58.546Z,136.00
2019-01-23T15:48:28.725Z,137.18
2019-01-23T15:50:58.820Z,129.15
2019-01-23T15:53:29.020Z,120.67
2019-01-23T15:55:59.131Z,127.07
2019-01-23T15:58:29.315Z,124.87
2019-01-23T16:00:59.380Z,124.15
2019-01-23T16:03:29.952Z,118.95
2019-01-23T16:06:00.046Z,108.97
2019-01-23T16:08:30.177Z,111.30
2019-01-23T16:11:00.275Z,105.87
2019-01-23T16:13:31.042Z,102.07
2019-01-23T16:16:01.168Z,92.12
2019-01-23T16:18:31.909Z,93.35
2019-01-23T16:21:01.987Z,96.05
2019-01-23T16:23:32.336Z,93.15
2019-01-23T16:26:02.432Z,62.15
2019-01-23T16:28:32.600Z,92.62
2019-01-23T16:31:02.697Z,80.75
2019-01-23T16:33:32.852Z,89.15
2019-01-23T16:36:06.302Z,83.52
2019-01-23T16:38:36.430Z,91.65
2019-01-23T16:41:06.530Z,72.08
2019-01-23T16:43:36.900Z,63.85
2019-01-23T16:46:08.361Z,88.15
2019-01-23T16:48:58.071Z,79.85
2019-01-23T16:51:28.155Z,78.75
2019-01-23T16:54:17.711Z,80.50
2019-01-23T16:56:47.889Z,81.15
2019-01-23T16:59:18.008Z,64.70
2019-01-23T17:01:55.482Z,76.47
2019-01-23T17:04:25.646Z,75.60
2019-01-23T17:06:59.214Z,66.45
2019-01-23T17:09:29.340Z,69.87
2019-01-23T17:11:59.437Z,66.28
2019-01-23T17:14:29.576Z,70.45
2019-01-23T17:16:59.808Z,74.40
2019-01-23T17:19:29.936Z,66.15
2019-01-23T17:22:00.037Z,73.62
2019-01-23T17:24:30.153Z,74.82
2019-01-23T17:27:00.256Z,69.00
2019-01-23T17:29:50.041Z,67.58
2019-01-23T17:32:02.285Z,56.18
2019-01-23T17:34:32.429Z,55.25
2019-01-23T17:37:02.615Z,65.97
2019-01-23T17:39:32.815Z,69.82
2019-01-23T17:42:03.008Z,65.17
2019-01-23T17:44:33.104Z,61.55
2019-01-23T17:47:03.213Z,68.07
2019-01-23T17:49:33.344Z,66.42
2019-01-23T17:52:03.439Z,71.00
2019-01-23T17:54:34.394Z,56.45
2019-01-23T17:57:04.683Z,59.88
2019-01-23T17:59:34.803Z,72.30
2019-01-23T18:02:04.924Z,65.72
2019-01-23T18:04:35.096Z,71.45
2019-01-23T18:07:05.181Z,64.77
2019-01-23T18:09:35.303Z,63.68
2019-01-23T18:12:05.395Z,68.50
2019-01-23T18:14:35.970Z,65.65
2019-01-23T18:17:06.164Z,69.53
2019-01-23T18:19:37.261Z,70.28
2019-01-23T18:22:07.357Z,68.55
2019-01-23T18:24:37.481Z,66.80
2019-01-23T18:27:07.730Z,65.05
2019-01-23T18:29:51.311Z,65.03
2019-01-23T18:32:21.403Z,48.60
2019-01-23T18:35:02.096Z,62.83
2019-01-23T18:37:46.381Z,59.05
2019-01-23T18:40:32.506Z,61.10
2019-01-23T18:43:31.057Z,64.77
2019-01-23T18:46:09.020Z,56.58
2019-01-23T18:48:47.208Z,54.00
2019-01-23T18:51:20.649Z,61.05
2019-01-23T18:53:50.828Z,69.80
2019-01-23T18:56:21.992Z,66.60
2019-01-23T18:58:52.189Z,67.60
2019-01-23T19:01:22.328Z,63.85
2019-01-23T19:03:52.421Z,80.80
2019-01-23T19:06:22.544Z,69.12
2019-01-23T19:08:52.659Z,70.47
2019-01-23T19:11:23.684Z,68.67
2019-01-23T19:13:53.790Z,64.03
2019-01-23T19:16:24.075Z,70.78
2019-01-23T19:18:54.211Z,62.85
2019-01-23T19:21:24.327Z,68.10
2019-01-23T19:23:54.422Z,64.00
2019-01-23T19:26:24.546Z,66.70
2019-01-23T19:28:54.643Z,70.62
2019-01-23T19:31:24.771Z,67.60
2019-01-23T19:33:55.027Z,67.17
2019-01-23T19:36:25.341Z,62.45
2019-01-23T19:38:55.438Z,65.30
2019-01-23T19:41:25.565Z,66.47
2019-01-23T19:43:55.653Z,65.37
2019-01-23T19:46:25.844Z,60.40
2019-01-23T19:48:55.924Z,60.38
2019-01-23T19:51:26.378Z,62.93
2019-01-23T19:53:56.469Z,68.00
2019-01-23T19:56:26.592Z,62.98
2019-01-23T19:58:56.759Z,65.57
2019-01-23T20:01:26.885Z,67.97
2019-01-23T20:03:56.985Z,65.92
2019-01-23T20:06:27.106Z,77.60
2019-01-23T20:09:16.638Z,64.22
2019-01-23T20:11:46.761Z,72.78
2019-01-23T20:14:18.093Z,70.05
2019-01-23T20:16:48.236Z,72.40
2019-01-23T20:19:37.804Z,64.00
2019-01-23T20:22:07.919Z,69.50
2019-01-23T20:24:38.021Z,68.80
2019-01-23T20:27:08.141Z,72.58
2019-01-23T20:29:38.234Z,71.15
2019-01-23T20:32:08.460Z,69.20
2019-01-23T20:34:39.609Z,71.77
2019-01-23T20:37:09.728Z,70.52
2019-01-23T20:39:39.824Z,68.35
2019-01-23T20:42:09.948Z,69.53
2019-01-23T20:44:40.038Z,65.28
2019-01-23T20:47:10.159Z,73.15
2019-01-23T20:49:40.253Z,67.27
2019-01-23T20:52:10.384Z,67.27
2019-01-23T20:54:40.501Z,69.05
2019-01-23T20:57:10.623Z,75.57
2019-01-23T20:59:40.726Z,74.10
2019-01-23T21:02:10.854Z,68.60
2019-01-23T21:04:40.949Z,72.47
2019-01-23T21:07:11.083Z,68.78
2019-01-23T21:09:41.177Z,68.22
2019-01-23T21:12:11.330Z,71.30
2019-01-23T21:14:41.421Z,64.55
2019-01-23T21:17:11.549Z,72.92
2019-01-23T21:19:41.642Z,70.42
2019-01-23T21:22:11.776Z,74.10
2019-01-23T21:24:41.873Z,68.40
2019-01-23T21:27:11.998Z,62.05
2019-01-23T21:29:42.086Z,73.37
2019-01-23T21:32:12.211Z,66.90
2019-01-23T21:34:42.300Z,68.45
2019-01-23T21:37:12.428Z,71.12
2019-01-23T21:39:42.532Z,67.15
2019-01-23T21:42:12.656Z,70.67
2019-01-23T21:44:42.761Z,69.40
2019-01-23T21:47:12.890Z,69.22
2019-01-23T21:49:42.985Z,70.55
2019-01-23T21:52:13.118Z,64.03
2019-01-23T21:54:43.247Z,68.30
2019-01-23T21:57:13.365Z,66.28
2019-01-23T21:59:43.466Z,64.58
2019-01-23T22:02:13.628Z,61.95
2019-01-23T22:04:43.677Z,67.20
2019-01-23T22:07:13.863Z,68.97
2019-01-23T22:09:43.964Z,66.00
2019-01-23T22:12:14.085Z,68.10
2019-01-23T22:14:44.185Z,65.70
2019-01-23T22:17:14.691Z,66.10
2019-01-23T22:19:44.786Z,66.05
2019-01-23T22:22:14.901Z,69.87
2019-01-23T22:24:44.992Z,62.67
2019-01-23T22:27:15.110Z,65.83
2019-01-23T22:29:45.199Z,64.92
2019-01-23T22:32:15.898Z,64.47
2019-01-23T22:34:46.067Z,64.90
2019-01-23T22:37:16.175Z,67.80
2019-01-23T22:39:46.278Z,62.03
2019-01-23T22:42:16.409Z,66.60
2019-01-23T22:44:46.508Z,67.60
2019-01-23T22:47:16.621Z,63.68
2019-01-23T22:49:46.708Z,70.20
2019-01-23T22:52:16.821Z,68.28
2019-01-23T22:54:46.932Z,62.48
2019-01-23T22:57:18.018Z,66.15
2019-01-23T22:59:48.109Z,62.48
2019-01-23T23:02:18.221Z,63.60
2019-01-23T23:04:48.320Z,64.42
2019-01-23T23:07:18.436Z,59.48
2019-01-23T23:09:48.603Z,60.85
2019-01-23T23:12:18.724Z,58.92
2019-01-23T23:14:48.816Z,64.30
2019-01-23T23:17:19.010Z,64.53
2019-01-23T23:19:49.143Z,56.65
2019-01-23T23:22:19.259Z,61.70
2019-01-23T23:24:50.318Z,66.53
2019-01-23T23:27:20.435Z,60.10
2019-01-23T23:29:50.528Z,61.50
2019-01-23T23:32:20.637Z,60.70
2019-01-23T23:34:50.808Z,43.70
2019-01-23T23:37:20.942Z,63.42
2019-01-23T23:39:51.037Z,61.42
2019-01-23T23:42:21.255Z,61.28
2019-01-23T23:44:51.380Z,62.67
2019-01-23T23:47:21.597Z,61.33
2019-01-23T23:49:51.689Z,60.88
2019-01-23T23:52:21.802Z,59.53
2019-01-23T23:54:51.906Z,57.98
2019-01-23T23:57:22.018Z,61.60
2019-01-23T23:59:52.173Z,62.20
